createdAt,value
2023-05-17T00:01:52.571Z,51.36
2023-05-17T00:04:21.154Z,51.23
2023-05-17T00:06:51.024Z,51.26
2023-05-17T00:09:19.571Z,51.40
2023-05-17T00:11:48.038Z,51.51
2023-05-17T00:14:16.498Z,51.39
2023-05-17T00:16:44.974Z,51.36
2023-05-17T00:19:13.657Z,51.40
2023-05-17T00:21:42.298Z,51.19
2023-05-17T00:24:12.082Z,51.54
2023-05-17T00:26:40.538Z,51.50
2023-05-17T00:29:09.768Z,51.58
2023-05-17T00:31:38.265Z,51.55
2023-05-17T00:34:06.771Z,51.25
2023-05-17T00:36:35.388Z,51.50
2023-05-17T00:39:03.885Z,51.45
2023-05-17T00:41:33.804Z,51.25
2023-05-17T00:44:02.368Z,51.15
2023-05-17T00:46:30.866Z,51.28
2023-05-17T00:48:59.425Z,51.13
2023-05-17T00:51:28.656Z,51.27
2023-05-17T00:53:57.221Z,51.22
2023-05-17T00:56:25.979Z,51.12
2023-05-17T00:58:57.354Z,51.12
2023-05-17T01:01:27.504Z,51.15
2023-05-17T01:03:56.030Z,51.18
2023-05-17T01:06:25.561Z,51.13
2023-05-17T01:08:54.169Z,51.10
2023-05-17T01:11:33.489Z,50.92
2023-05-17T01:14:13.352Z,50.98
2023-05-17T01:16:49.832Z,51.28
2023-05-17T01:19:33.907Z,50.95
2023-05-17T01:22:16.668Z,50.94
2023-05-17T01:24:53.898Z,51.26
2023-05-17T01:27:26.808Z,51.20
2023-05-17T01:29:57.365Z,51.09
2023-05-17T01:32:26.191Z,51.17
2023-05-17T01:34:54.656Z,51.06
2023-05-17T01:37:23.178Z,50.92
2023-05-17T01:39:51.777Z,51.21
2023-05-17T01:42:28.782Z,51.08
2023-05-17T01:45:04.517Z,51.10
2023-05-17T01:47:41.329Z,50.95
2023-05-17T01:50:13.161Z,50.93
2023-05-17T01:52:51.089Z,50.90
2023-05-17T01:55:27.444Z,51.15
2023-05-17T01:57:58.599Z,51.00
2023-05-17T02:00:30.392Z,51.11
2023-05-17T02:02:59.422Z,50.85
2023-05-17T02:05:28.143Z,50.99
2023-05-17T02:07:57.031Z,50.87
2023-05-17T02:10:25.599Z,51.01
2023-05-17T02:12:54.003Z,51.26
2023-05-17T02:15:23.787Z,51.19
2023-05-17T02:17:52.824Z,51.03
2023-05-17T02:20:21.650Z,50.82
2023-05-17T02:22:50.163Z,51.08
2023-05-17T02:25:18.698Z,50.91
2023-05-17T02:27:47.145Z,50.95
2023-05-17T02:30:18.193Z,50.70
2023-05-17T02:32:48.340Z,50.87
2023-05-17T02:35:16.954Z,50.87
2023-05-17T02:37:45.365Z,50.77
2023-05-17T02:40:14.907Z,50.93
2023-05-17T02:42:43.366Z,50.78
2023-05-17T02:45:12.634Z,50.99
2023-05-17T02:47:41.271Z,50.94
2023-05-17T02:50:11.704Z,50.79
2023-05-17T02:52:40.235Z,50.78
2023-05-17T02:55:09.741Z,50.89
2023-05-17T02:57:38.151Z,50.78
2023-05-17T03:00:08.496Z,50.81
2023-05-17T03:02:39.879Z,50.91
2023-05-17T03:05:10.021Z,50.85
2023-05-17T03:07:42.956Z,50.70
2023-05-17T03:10:12.010Z,50.97
2023-05-17T03:12:44.843Z,50.87
2023-05-17T03:15:14.938Z,50.73
2023-05-17T03:17:43.491Z,50.61
2023-05-17T03:20:13.116Z,50.94
2023-05-17T03:22:42.943Z,50.70
2023-05-17T03:25:11.552Z,50.87
2023-05-17T03:27:40.046Z,50.77
2023-05-17T03:30:09.383Z,50.81
2023-05-17T03:32:40.957Z,50.98
2023-05-17T03:35:10.482Z,50.58
2023-05-17T03:37:40.927Z,50.67
2023-05-17T03:40:11.717Z,50.61
2023-05-17T03:42:40.331Z,50.67
2023-05-17T03:45:09.804Z,50.73
2023-05-17T03:47:38.526Z,50.73
2023-05-17T03:50:08.276Z,50.70
2023-05-17T03:52:37.197Z,50.79
2023-05-17T03:55:06.473Z,50.62
2023-05-17T03:57:37.124Z,50.65
2023-05-17T04:00:10.556Z,50.78
2023-05-17T04:02:43.224Z,50.68
2023-05-17T04:05:13.312Z,50.44
2023-05-17T04:07:44.093Z,50.48
2023-05-17T04:10:14.412Z,50.72
2023-05-17T04:12:44.365Z,50.70
2023-05-17T04:15:12.940Z,50.54
2023-05-17T04:17:43.192Z,50.72
2023-05-17T04:20:13.080Z,50.70
2023-05-17T04:22:42.392Z,50.72
2023-05-17T04:25:13.101Z,50.72
2023-05-17T04:27:42.102Z,50.62
2023-05-17T04:30:14.136Z,50.97
2023-05-17T04:32:43.173Z,51.57
2023-05-17T04:35:12.233Z,51.75
2023-05-17T04:37:43.551Z,51.14
2023-05-17T04:40:22.558Z,50.87
2023-05-17T04:42:52.652Z,50.75
2023-05-17T04:45:23.625Z,50.21
2023-05-17T04:47:52.826Z,50.24
2023-05-17T04:50:21.429Z,50.01
2023-05-17T04:52:50.177Z,49.79
2023-05-17T04:55:19.662Z,48.99
2023-05-17T04:57:48.619Z,49.19
2023-05-17T05:00:20.886Z,48.62
2023-05-17T05:02:56.304Z,48.78
2023-05-17T05:05:25.674Z,48.45
2023-05-17T05:07:54.266Z,48.22
2023-05-17T05:10:23.098Z,47.63
2023-05-17T05:12:51.597Z,47.23
2023-05-17T05:15:20.829Z,47.08
2023-05-17T05:17:57.029Z,47.14
2023-05-17T05:20:27.832Z,46.98
2023-05-17T05:22:58.529Z,46.95
2023-05-17T05:25:28.475Z,47.10
2023-05-17T05:27:57.290Z,47.02
2023-05-17T05:30:25.856Z,46.94
2023-05-17T05:32:57.670Z,46.78
2023-05-17T05:35:30.209Z,46.62
2023-05-17T05:38:00.182Z,46.36
2023-05-17T05:40:29.191Z,45.33
2023-05-17T05:42:57.840Z,44.83
2023-05-17T05:45:26.306Z,44.47
2023-05-17T05:47:59.693Z,44.04
2023-05-17T05:50:29.167Z,43.97
2023-05-17T05:55:34.039Z,44.49
2023-05-17T05:58:02.610Z,44.35
2023-05-17T06:00:31.335Z,44.67
2023-05-17T06:03:01.471Z,45.42
2023-05-17T06:05:30.077Z,45.50
2023-05-17T06:07:58.604Z,45.37
2023-05-17T06:10:27.478Z,45.30
2023-05-17T06:12:56.074Z,45.24
2023-05-17T06:15:24.654Z,45.40
2023-05-17T06:17:53.324Z,45.88
2023-05-17T06:20:23.361Z,45.88
2023-05-17T06:22:51.926Z,45.63
2023-05-17T06:25:20.718Z,45.98
2023-05-17T06:27:49.155Z,45.76
2023-05-17T06:30:17.736Z,46.19
2023-05-17T06:32:46.227Z,46.03
2023-05-17T06:35:14.784Z,46.14
2023-05-17T06:37:44.571Z,46.37
2023-05-17T06:40:16.751Z,46.45
2023-05-17T06:42:45.733Z,46.20
2023-05-17T06:45:14.627Z,46.34
2023-05-17T06:47:43.173Z,46.65
2023-05-17T06:50:12.100Z,46.69
2023-05-17T06:52:40.588Z,47.30
2023-05-17T06:55:10.652Z,46.94
2023-05-17T06:57:39.345Z,47.17
2023-05-17T07:00:11.095Z,46.97
2023-05-17T07:02:39.915Z,46.79
2023-05-17T07:05:08.996Z,46.44
2023-05-17T07:07:37.494Z,46.56
2023-05-17T07:10:08.282Z,46.70
2023-05-17T07:12:38.935Z,46.92
2023-05-17T07:15:08.397Z,46.48
2023-05-17T07:17:40.714Z,46.42
2023-05-17T07:20:10.213Z,46.38
2023-05-17T07:22:41.656Z,46.35
2023-05-17T07:25:11.203Z,46.53
2023-05-17T07:27:40.973Z,46.53
2023-05-17T07:30:12.659Z,46.50
2023-05-17T07:32:41.098Z,46.81
2023-05-17T07:35:09.735Z,46.39
2023-05-17T07:37:38.263Z,46.61
2023-05-17T07:40:08.177Z,46.69
2023-05-17T07:42:36.571Z,46.44
2023-05-17T07:45:07.723Z,46.51
2023-05-17T07:47:36.276Z,46.29
2023-05-17T07:50:05.691Z,46.42
2023-05-17T07:52:34.208Z,46.41
2023-05-17T07:55:03.888Z,46.57
2023-05-17T07:57:32.424Z,46.30
2023-05-17T08:00:00.941Z,46.54
2023-05-17T08:02:30.885Z,46.51
2023-05-17T08:04:59.861Z,46.26
2023-05-17T08:07:28.595Z,46.49
2023-05-17T08:09:57.049Z,46.42
2023-05-17T08:12:25.534Z,46.04
2023-05-17T08:14:54.041Z,46.21
2023-05-17T08:17:22.926Z,46.43
2023-05-17T08:19:52.957Z,46.56
2023-05-17T08:22:21.531Z,46.36
2023-05-17T08:24:49.978Z,46.52
2023-05-17T08:27:18.495Z,46.33
2023-05-17T08:29:46.918Z,46.25
2023-05-17T08:32:15.309Z,46.25
2023-05-17T08:34:43.817Z,46.44
2023-05-17T08:37:14.531Z,46.03
2023-05-17T08:39:43.082Z,46.04
2023-05-17T08:42:11.977Z,46.39
2023-05-17T08:44:40.525Z,46.39
2023-05-17T08:47:12.575Z,45.96
2023-05-17T08:49:42.165Z,46.23
2023-05-17T08:52:11.910Z,45.96
2023-05-17T08:54:42.526Z,46.05
2023-05-17T08:57:13.928Z,45.89
2023-05-17T08:59:42.922Z,46.08
2023-05-17T09:02:11.764Z,46.39
2023-05-17T09:04:40.933Z,46.39
2023-05-17T09:07:09.480Z,46.25
2023-05-17T09:09:38.093Z,46.68
2023-05-17T09:12:08.612Z,46.08
2023-05-17T09:14:37.114Z,46.34
2023-05-17T09:17:06.123Z,45.75
2023-05-17T09:19:34.698Z,46.14
2023-05-17T09:22:04.132Z,46.50
2023-05-17T09:24:32.698Z,45.98
2023-05-17T09:27:05.752Z,46.01
2023-05-17T09:29:36.674Z,45.59
2023-05-17T09:32:16.377Z,45.99
2023-05-17T09:34:46.898Z,45.84
2023-05-17T09:37:16.789Z,45.66
2023-05-17T09:39:47.187Z,45.78
2023-05-17T09:42:17.147Z,45.85
2023-05-17T09:44:53.404Z,45.61
2023-05-17T09:47:26.372Z,45.66
2023-05-17T09:49:57.034Z,45.77
2023-05-17T09:52:26.841Z,45.88
2023-05-17T09:54:56.546Z,45.76
2023-05-17T09:57:27.085Z,46.00
2023-05-17T09:59:58.517Z,45.71
2023-05-17T10:02:31.029Z,45.62
2023-05-17T10:04:59.775Z,46.05
2023-05-17T10:07:29.197Z,45.60
2023-05-17T10:09:58.438Z,45.91
2023-05-17T10:12:30.535Z,45.92
2023-05-17T10:15:01.257Z,45.75
2023-05-17T10:17:31.148Z,44.24
2023-05-17T10:20:00.481Z,43.77
2023-05-17T10:22:29.820Z,43.58
2023-05-17T10:24:59.035Z,43.92
2023-05-17T10:27:29.002Z,43.79
2023-05-17T10:29:58.942Z,43.83
2023-05-17T10:32:30.080Z,44.31
2023-05-17T10:35:10.594Z,44.46
2023-05-17T10:37:41.635Z,44.52
2023-05-17T10:40:13.984Z,44.51
2023-05-17T10:42:46.217Z,44.88
2023-05-17T10:45:15.235Z,44.52
2023-05-17T10:47:46.215Z,44.59
2023-05-17T10:50:15.341Z,44.71
2023-05-17T10:52:49.178Z,46.19
2023-05-17T10:55:21.835Z,46.26
2023-05-17T10:58:18.055Z,44.97
2023-05-17T11:00:48.836Z,44.19
2023-05-17T11:03:22.586Z,43.42
2023-05-17T11:06:24.393Z,42.67
2023-05-17T11:09:14.969Z,42.18
2023-05-17T11:12:05.243Z,42.18
2023-05-17T11:14:52.990Z,41.47
2023-05-17T11:17:23.189Z,41.86
2023-05-17T11:20:02.819Z,41.63
2023-05-17T11:22:38.218Z,41.56
2023-05-17T11:25:13.074Z,41.66
2023-05-17T11:27:46.701Z,41.50
2023-05-17T11:30:19.872Z,41.60
2023-05-17T11:32:50.455Z,41.28
2023-05-17T11:35:24.692Z,41.39
2023-05-17T11:37:54.557Z,41.70
2023-05-17T11:40:28.372Z,41.59
2023-05-17T11:43:14.251Z,41.24
2023-05-17T11:45:49.991Z,40.99
2023-05-17T11:48:22.601Z,41.02
2023-05-17T11:50:55.110Z,41.11
2023-05-17T11:53:25.425Z,40.37
2023-05-17T11:55:54.099Z,40.97
2023-05-17T11:58:26.560Z,40.44
2023-05-17T12:00:56.769Z,40.50
2023-05-17T12:03:26.311Z,41.26
2023-05-17T12:06:06.288Z,41.35
2023-05-17T12:08:35.684Z,41.26
2023-05-17T12:11:05.190Z,41.62
2023-05-17T12:13:35.777Z,41.32
2023-05-17T12:16:08.636Z,41.25
2023-05-17T12:18:38.650Z,41.09
2023-05-17T12:21:10.294Z,40.35
2023-05-17T12:23:41.045Z,40.48
2023-05-17T12:26:10.961Z,40.75
2023-05-17T12:28:41.061Z,40.79
2023-05-17T12:31:12.916Z,40.61
2023-05-17T12:33:44.120Z,40.62
2023-05-17T12:36:15.042Z,40.95
2023-05-17T12:38:45.117Z,40.93
2023-05-17T12:41:15.086Z,41.45
2023-05-17T12:43:46.388Z,41.40
2023-05-17T12:46:17.821Z,41.79
2023-05-17T12:48:46.970Z,41.75
2023-05-17T12:51:17.957Z,41.87
2023-05-17T12:53:51.058Z,41.35
2023-05-17T12:56:21.471Z,41.15
2023-05-17T12:59:11.858Z,40.72
2023-05-17T13:01:43.386Z,40.85
2023-05-17T13:04:12.833Z,40.32
2023-05-17T13:06:47.282Z,39.89
2023-05-17T13:09:16.551Z,39.95
2023-05-17T13:11:45.384Z,39.84
2023-05-17T13:14:13.827Z,40.13
2023-05-17T13:16:42.793Z,39.96
2023-05-17T13:19:15.222Z,39.67
2023-05-17T13:21:43.893Z,39.69
2023-05-17T13:24:13.701Z,39.48
2023-05-17T13:26:42.214Z,39.57
2023-05-17T13:29:10.748Z,39.29
2023-05-17T13:31:39.192Z,39.22
2023-05-17T13:34:07.734Z,39.56
2023-05-17T13:36:36.254Z,39.74
2023-05-17T13:39:05.064Z,39.69
2023-05-17T13:41:34.901Z,39.81
2023-05-17T13:44:03.408Z,39.98
2023-05-17T13:46:32.240Z,39.35
2023-05-17T13:49:02.636Z,39.12
2023-05-17T13:51:31.472Z,39.42
2023-05-17T13:53:59.975Z,39.25
2023-05-17T13:56:28.453Z,39.32
2023-05-17T13:58:58.574Z,39.49
2023-05-17T14:01:27.076Z,39.41
2023-05-17T14:03:56.064Z,39.44
2023-05-17T14:06:24.739Z,39.60
2023-05-17T14:08:54.474Z,39.80
2023-05-17T14:11:23.015Z,39.54
2023-05-17T14:13:51.831Z,39.79
2023-05-17T14:16:22.213Z,40.04
2023-05-17T14:18:50.957Z,40.19
2023-05-17T14:21:19.582Z,40.83
2023-05-17T14:23:48.005Z,41.24
2023-05-17T14:26:16.513Z,41.54
2023-05-17T14:28:45.099Z,41.53
2023-05-17T14:31:13.572Z,41.83
2023-05-17T14:33:43.455Z,41.88
2023-05-17T14:36:13.300Z,41.97
2023-05-17T14:38:42.597Z,41.93
2023-05-17T14:41:11.036Z,42.35
2023-05-17T14:43:39.463Z,42.41
2023-05-17T14:46:07.948Z,42.75
2023-05-17T14:48:36.930Z,42.75
2023-05-17T14:51:07.189Z,42.58
2023-05-17T14:53:35.823Z,43.00
2023-05-17T14:56:04.762Z,43.05
2023-05-17T14:58:33.234Z,43.13
2023-05-17T15:01:05.752Z,43.25
2023-05-17T15:03:35.686Z,43.00
2023-05-17T15:06:09.388Z,43.31
2023-05-17T15:08:39.716Z,43.50
2023-05-17T15:11:08.378Z,43.11
2023-05-17T15:13:36.913Z,43.05
2023-05-17T15:16:05.641Z,43.61
2023-05-17T15:18:34.173Z,44.03
2023-05-17T15:21:03.090Z,43.71
2023-05-17T15:23:32.989Z,43.89
2023-05-17T15:26:01.472Z,44.00
2023-05-17T15:28:29.971Z,44.24
2023-05-17T15:31:02.440Z,44.05
2023-05-17T15:33:32.215Z,44.29
2023-05-17T15:36:00.757Z,44.18
2023-05-17T15:38:29.277Z,44.50
2023-05-17T15:41:05.018Z,44.16
2023-05-17T15:43:34.720Z,44.46
2023-05-17T15:46:03.247Z,44.45
2023-05-17T15:48:32.201Z,44.05
2023-05-17T15:51:01.104Z,44.03
2023-05-17T15:53:30.879Z,44.12
2023-05-17T15:55:59.389Z,44.31
2023-05-17T15:58:32.887Z,44.14
2023-05-17T16:01:04.958Z,44.13
2023-05-17T16:03:33.772Z,44.07
2023-05-17T16:06:04.337Z,44.33
2023-05-17T16:08:33.081Z,44.46
2023-05-17T16:11:03.807Z,44.18
2023-05-17T16:13:33.639Z,44.61
2023-05-17T16:16:02.144Z,44.77
2023-05-17T16:18:31.834Z,45.09
2023-05-17T16:21:02.743Z,44.95
2023-05-17T16:23:31.423Z,44.99
2023-05-17T16:25:59.951Z,44.87
2023-05-17T16:28:29.101Z,44.96
2023-05-17T16:30:59.185Z,45.10
2023-05-17T16:33:27.801Z,45.28
2023-05-17T16:35:56.439Z,45.36
2023-05-17T16:38:25.102Z,44.97
2023-05-17T16:40:53.692Z,45.39
2023-05-17T16:43:22.209Z,45.10
2023-05-17T16:45:52.278Z,45.31
2023-05-17T16:48:22.179Z,45.29
2023-05-17T16:50:50.718Z,45.55
2023-05-17T16:53:19.462Z,45.22
2023-05-17T16:55:48.054Z,45.41
2023-05-17T16:58:16.632Z,45.18
2023-05-17T17:00:45.141Z,45.66
2023-05-17T17:03:13.804Z,45.19
2023-05-17T17:05:43.678Z,45.27
2023-05-17T17:08:12.358Z,44.98
2023-05-17T17:10:41.186Z,44.17
2023-05-17T17:13:09.756Z,44.05
2023-05-17T17:15:38.244Z,43.91
2023-05-17T17:18:06.980Z,43.41
2023-05-17T17:20:35.927Z,43.22
2023-05-17T17:23:06.426Z,43.17
2023-05-17T17:25:35.180Z,42.96
2023-05-17T17:28:03.681Z,42.82
2023-05-17T17:30:32.238Z,42.50
2023-05-17T17:33:01.242Z,42.35
2023-05-17T17:35:30.200Z,42.01
2023-05-17T17:37:58.667Z,41.85
2023-05-17T17:40:28.776Z,42.00
2023-05-17T17:42:57.513Z,41.42
2023-05-17T17:45:26.026Z,37.51
2023-05-17T17:47:54.563Z,35.75
2023-05-17T17:50:23.045Z,34.79
2023-05-17T17:52:51.938Z,35.68
2023-05-17T17:55:20.424Z,36.53
2023-05-17T17:57:51.766Z,35.85
2023-05-17T18:00:20.999Z,35.81
2023-05-17T18:02:50.521Z,36.29
2023-05-17T18:05:19.121Z,36.46
2023-05-17T18:07:47.656Z,36.87
2023-05-17T18:10:16.111Z,36.98
2023-05-17T18:12:44.784Z,37.15
2023-05-17T18:15:14.598Z,37.46
2023-05-17T18:17:43.399Z,37.52
2023-05-17T18:20:12.196Z,37.32
2023-05-17T18:22:40.735Z,37.35
2023-05-17T18:25:10.144Z,38.03
2023-05-17T18:27:41.273Z,38.79
2023-05-17T18:30:11.249Z,39.36
2023-05-17T18:32:41.353Z,39.39
2023-05-17T18:35:10.255Z,39.50
2023-05-17T18:37:38.745Z,39.95
2023-05-17T18:40:08.580Z,39.95
2023-05-17T18:42:37.204Z,40.63
2023-05-17T18:45:06.680Z,40.68
2023-05-17T18:47:35.764Z,40.67
2023-05-17T18:50:06.254Z,40.64
2023-05-17T18:52:34.688Z,40.92
2023-05-17T18:55:03.197Z,41.51
2023-05-17T18:57:32.092Z,41.33
2023-05-17T19:00:00.828Z,41.67
2023-05-17T19:02:29.340Z,41.74
2023-05-17T19:04:57.764Z,41.76
2023-05-17T19:07:27.523Z,41.74
2023-05-17T19:09:56.132Z,41.86
2023-05-17T19:12:24.609Z,41.99
2023-05-17T19:14:53.019Z,41.96
2023-05-17T19:17:21.480Z,41.95
2023-05-17T19:19:50.023Z,42.17
2023-05-17T19:22:18.423Z,42.37
2023-05-17T19:24:48.355Z,42.48
2023-05-17T19:27:19.473Z,41.84
2023-05-17T19:29:48.099Z,42.10
2023-05-17T19:32:16.825Z,42.66
2023-05-17T19:34:45.303Z,42.65
2023-05-17T19:37:13.766Z,42.71
2023-05-17T19:39:42.245Z,42.49
2023-05-17T19:42:11.958Z,42.57
2023-05-17T19:44:40.528Z,42.50
2023-05-17T19:47:08.946Z,42.56
2023-05-17T19:49:37.370Z,42.73
2023-05-17T19:52:06.558Z,42.63
2023-05-17T19:54:35.012Z,42.48
2023-05-17T19:57:03.404Z,42.76
2023-05-17T19:59:33.648Z,42.72
2023-05-17T20:02:02.126Z,42.66
2023-05-17T20:04:30.755Z,42.78
2023-05-17T20:06:59.180Z,42.80
2023-05-17T20:09:30.234Z,42.62
2023-05-17T20:11:58.821Z,42.80
2023-05-17T20:14:28.353Z,43.00
2023-05-17T20:16:58.147Z,42.95
2023-05-17T20:19:26.809Z,42.86
2023-05-17T20:21:55.515Z,42.82
2023-05-17T20:24:25.879Z,43.12
2023-05-17T20:26:54.341Z,43.07
2023-05-17T20:29:22.746Z,42.97
2023-05-17T20:31:51.313Z,43.00
2023-05-17T20:34:21.731Z,43.14
2023-05-17T20:36:50.182Z,42.85
2023-05-17T20:39:19.715Z,42.88
2023-05-17T20:41:50.011Z,43.05
2023-05-17T20:44:18.799Z,43.26
2023-05-17T20:46:47.490Z,42.92
2023-05-17T20:49:16.934Z,43.19
2023-05-17T20:51:46.759Z,43.18
2023-05-17T20:54:15.463Z,43.21
2023-05-17T20:56:43.934Z,43.53
2023-05-17T20:59:12.869Z,43.09
2023-05-17T21:01:41.440Z,43.28
2023-05-17T21:04:11.196Z,43.36
2023-05-17T21:06:39.657Z,43.52
2023-05-17T21:09:09.458Z,43.17
2023-05-17T21:11:37.889Z,43.51
2023-05-17T21:14:06.350Z,43.35
2023-05-17T21:16:35.521Z,43.48
2023-05-17T21:19:04.414Z,43.28
2023-05-17T21:21:32.944Z,43.31
2023-05-17T21:24:01.438Z,43.51
2023-05-17T21:26:31.496Z,43.31
2023-05-17T21:28:59.992Z,43.54
2023-05-17T21:31:31.680Z,43.53
2023-05-17T21:34:00.251Z,43.76
2023-05-17T21:36:28.737Z,43.33
2023-05-17T21:38:57.165Z,43.80
2023-05-17T21:41:25.653Z,43.62
2023-05-17T21:43:55.659Z,43.73
2023-05-17T21:46:24.174Z,43.52
2023-05-17T21:48:53.157Z,43.45
2023-05-17T21:51:22.308Z,43.44
2023-05-17T21:53:51.233Z,43.65
2023-05-17T21:56:19.769Z,43.54
2023-05-17T21:58:48.286Z,43.66
2023-05-17T22:01:20.014Z,43.72
2023-05-17T22:03:50.827Z,43.74
2023-05-17T22:06:19.794Z,43.72
2023-05-17T22:08:48.808Z,43.58
2023-05-17T22:11:18.162Z,43.62
2023-05-17T22:13:47.731Z,43.71
2023-05-17T22:16:16.180Z,43.61
2023-05-17T22:18:47.313Z,43.67
2023-05-17T22:21:15.803Z,43.78
2023-05-17T22:23:44.279Z,43.72
2023-05-17T22:26:12.847Z,43.82
2023-05-17T22:28:41.230Z,43.55
2023-05-17T22:31:09.859Z,43.91
2023-05-17T22:33:38.257Z,43.80
2023-05-17T22:36:13.944Z,43.82
2023-05-17T22:38:43.493Z,43.67
2023-05-17T22:41:12.583Z,43.68
2023-05-17T22:43:41.589Z,43.68
2023-05-17T22:46:10.025Z,43.97
2023-05-17T22:48:38.488Z,43.81
2023-05-17T22:51:08.448Z,43.82
2023-05-17T22:53:36.850Z,43.75
2023-05-17T22:56:05.598Z,44.05
2023-05-17T22:58:34.075Z,43.92
2023-05-17T23:01:02.628Z,43.96
2023-05-17T23:03:31.136Z,43.80
2023-05-17T23:06:03.362Z,43.75
2023-05-17T23:08:33.585Z,43.94
2023-05-17T23:11:04.849Z,43.82
2023-05-17T23:13:33.812Z,43.94
2023-05-17T23:16:02.257Z,43.87
2023-05-17T23:18:30.694Z,43.90
2023-05-17T23:21:00.151Z,44.01
2023-05-17T23:23:29.876Z,44.11
2023-05-17T23:25:59.709Z,44.00
2023-05-17T23:28:28.116Z,44.25
2023-05-17T23:31:01.172Z,44.15
2023-05-17T23:33:31.042Z,43.95
2023-05-17T23:35:59.603Z,44.06
2023-05-17T23:38:28.003Z,44.24
2023-05-17T23:40:58.200Z,44.31
2023-05-17T23:43:28.061Z,44.02
2023-05-17T23:45:57.472Z,44.00
2023-05-17T23:48:26.536Z,44.29
2023-05-17T23:50:55.239Z,44.34
2023-05-17T23:53:26.143Z,44.19
2023-05-17T23:55:54.688Z,43.88
2023-05-17T23:58:23.153Z,44.10
